createdAt,value
2018-09-18T00:01:53.211Z,98748.00
2018-09-18T00:04:22.734Z,98754.00
2018-09-18T00:06:55.241Z,98754.00
2018-09-18T00:09:24.701Z,98753.00
2018-09-18T00:11:54.162Z,98754.00
2018-09-18T00:14:23.721Z,98753.00
2018-09-18T00:16:53.216Z,98752.00
2018-09-18T00:19:22.821Z,98745.00
2018-09-18T00:21:52.401Z,98743.00
2018-09-18T00:24:22.061Z,98738.00
2018-09-18T00:26:51.681Z,98738.00
2018-09-18T00:29:21.241Z,98734.00
2018-09-18T00:31:50.721Z,98729.00
2018-09-18T00:34:20.262Z,98728.00
2018-09-18T00:36:49.784Z,98722.00
2018-09-18T00:39:19.421Z,98722.00
2018-09-18T00:41:48.836Z,98725.00
2018-09-18T00:44:18.301Z,98734.00
2018-09-18T00:46:47.795Z,98734.00
2018-09-18T00:49:17.201Z,98726.00
2018-09-18T00:51:46.601Z,98733.00
2018-09-18T00:54:16.161Z,98732.00
2018-09-18T00:56:46.041Z,98735.00
2018-09-18T00:59:15.727Z,98736.00
2018-09-18T01:01:45.101Z,98733.00
2018-09-18T01:04:14.720Z,98733.00
2018-09-18T01:06:44.135Z,98732.00
2018-09-18T01:09:13.740Z,98737.00
2018-09-18T01:11:43.301Z,98732.00
2018-09-18T01:14:12.761Z,98734.00
2018-09-18T01:16:42.341Z,98730.00
2018-09-18T01:19:11.881Z,98722.00
2018-09-18T01:21:41.401Z,98723.00
2018-09-18T01:24:10.901Z,98727.00
2018-09-18T01:26:40.401Z,98718.00
2018-09-18T01:29:09.861Z,98723.00
2018-09-18T01:31:39.381Z,98723.00
2018-09-18T01:34:09.325Z,98719.00
2018-09-18T01:36:39.001Z,98724.00
2018-09-18T01:39:09.800Z,98721.00
2018-09-18T01:41:39.561Z,98720.00
2018-09-18T01:44:09.341Z,98723.00
2018-09-18T01:46:38.861Z,98719.00
2018-09-18T01:49:08.386Z,98723.00
2018-09-18T01:51:38.021Z,98719.00
2018-09-18T01:54:07.621Z,98728.00
2018-09-18T01:56:37.441Z,98721.00
2018-09-18T01:59:07.240Z,98724.00
2018-09-18T02:01:36.668Z,98726.00
2018-09-18T02:04:06.228Z,98720.00
2018-09-18T02:07:06.784Z,98725.00
2018-09-18T02:09:36.288Z,98726.00
2018-09-18T02:12:05.799Z,98719.00
2018-09-18T02:14:35.122Z,98717.00
2018-09-18T02:17:04.608Z,98716.00
2018-09-18T02:19:34.120Z,98722.00
2018-09-18T02:22:03.609Z,98724.00
2018-09-18T02:24:33.088Z,98718.00
2018-09-18T02:27:02.809Z,98721.00
2018-09-18T02:29:32.288Z,98724.00
2018-09-18T02:32:01.709Z,98724.00
2018-09-18T02:34:31.189Z,98728.00
2018-09-18T02:37:00.749Z,98725.00
2018-09-18T02:39:30.324Z,98722.00
2018-09-18T02:42:00.187Z,98732.00
2018-09-18T02:44:29.609Z,98732.00
2018-09-18T02:46:59.128Z,98729.00
2018-09-18T02:49:28.569Z,98731.00
2018-09-18T02:51:58.409Z,98734.00
2018-09-18T02:54:27.917Z,98735.00
2018-09-18T02:56:57.488Z,98740.00
2018-09-18T02:59:27.208Z,98732.00
2018-09-18T03:01:56.708Z,98733.00
2018-09-18T03:04:26.168Z,98733.00
2018-09-18T03:06:55.645Z,98724.00
2018-09-18T03:09:25.228Z,98725.00
2018-09-18T03:11:54.689Z,98726.00
2018-09-18T03:14:24.208Z,98727.00
2018-09-18T03:16:53.848Z,98725.00
2018-09-18T03:19:23.448Z,98729.00
2018-09-18T03:21:53.052Z,98727.00
2018-09-18T03:24:22.489Z,98728.00
2018-09-18T03:26:51.918Z,98730.00
2018-09-18T03:29:21.543Z,98734.00
2018-09-18T03:31:51.244Z,98729.00
2018-09-18T03:34:20.652Z,98737.00
2018-09-18T03:36:50.281Z,98742.00
2018-09-18T03:39:19.901Z,98732.00
2018-09-18T03:41:49.400Z,98733.00
2018-09-18T03:44:18.981Z,98737.00
2018-09-18T03:46:48.521Z,98732.00
2018-09-18T03:49:18.120Z,98728.00
2018-09-18T03:51:47.721Z,98724.00
2018-09-18T03:54:17.280Z,98729.00
2018-09-18T03:56:46.880Z,98736.00
2018-09-18T03:59:16.461Z,98734.00
2018-09-18T04:01:45.981Z,98742.00
2018-09-18T04:04:15.405Z,98728.00
2018-09-18T04:06:44.866Z,98742.00
2018-09-18T04:09:14.366Z,98742.00
2018-09-18T04:11:43.818Z,98740.00
2018-09-18T04:14:13.267Z,98734.00
2018-09-18T04:16:42.745Z,98740.00
2018-09-18T04:19:12.406Z,98743.00
2018-09-18T04:21:42.779Z,98752.00
2018-09-18T04:24:12.315Z,98742.00
2018-09-18T04:26:42.086Z,98742.00
2018-09-18T04:29:11.626Z,98755.00
2018-09-18T04:31:41.606Z,98748.00
2018-09-18T04:34:11.086Z,98756.00
2018-09-18T04:36:40.733Z,98752.00
2018-09-18T04:39:12.125Z,98751.00
2018-09-18T04:41:41.747Z,98751.00
2018-09-18T04:44:11.328Z,98754.00
2018-09-18T04:46:40.897Z,98756.00
2018-09-18T04:49:10.526Z,98763.00
2018-09-18T04:51:40.142Z,98759.00
2018-09-18T04:54:09.706Z,98757.00
2018-09-18T04:56:39.226Z,98756.00
2018-09-18T04:59:08.785Z,98759.00
2018-09-18T05:01:38.218Z,98764.00
2018-09-18T05:04:07.849Z,98767.00
2018-09-18T05:06:37.405Z,98763.00
2018-09-18T05:09:10.284Z,98766.00
2018-09-18T05:11:39.946Z,98767.00
2018-09-18T05:14:09.486Z,98769.00
2018-09-18T05:16:38.945Z,98772.00
2018-09-18T05:19:08.648Z,98774.00
2018-09-18T05:21:38.146Z,98783.00
2018-09-18T05:24:08.005Z,98782.00
2018-09-18T05:26:37.645Z,98776.00
2018-09-18T05:29:07.285Z,98786.00
2018-09-18T05:31:36.886Z,98782.00
2018-09-18T05:34:06.322Z,98784.00
2018-09-18T05:36:35.864Z,98777.00
2018-09-18T05:39:07.782Z,98792.00
2018-09-18T05:41:37.521Z,98791.00
2018-09-18T05:44:07.202Z,98781.00
2018-09-18T05:46:37.053Z,98786.00
2018-09-18T05:49:06.901Z,98792.00
2018-09-18T05:51:36.502Z,98792.00
2018-09-18T05:54:06.073Z,98785.00
2018-09-18T05:56:36.702Z,98784.00
2018-09-18T05:59:06.305Z,98778.00
2018-09-18T06:01:35.874Z,98783.00
2018-09-18T06:04:05.382Z,98791.00
2018-09-18T06:06:35.142Z,98782.00
2018-09-18T06:09:08.005Z,98788.00
2018-09-18T06:11:37.653Z,98781.00
2018-09-18T06:14:07.353Z,98788.00
2018-09-18T06:16:36.841Z,98795.00
2018-09-18T06:19:06.459Z,98800.00
2018-09-18T06:21:35.930Z,98798.00
2018-09-18T06:24:05.481Z,98797.00
2018-09-18T06:26:35.081Z,98802.00
2018-09-18T06:29:04.741Z,98797.00
2018-09-18T06:31:34.141Z,98806.00
2018-09-18T06:34:03.621Z,98797.00
2018-09-18T06:36:33.141Z,98807.00
2018-09-18T06:39:02.981Z,98799.00
2018-09-18T06:41:32.541Z,98809.00
2018-09-18T06:44:02.061Z,98810.00
2018-09-18T06:46:31.541Z,98801.00
2018-09-18T06:49:01.141Z,98798.00
2018-09-18T06:51:30.713Z,98800.00
2018-09-18T06:54:00.258Z,98798.00
2018-09-18T06:56:29.741Z,98798.00
2018-09-18T06:58:59.401Z,98798.00
2018-09-18T07:01:29.099Z,98800.00
2018-09-18T07:03:58.666Z,98801.00
2018-09-18T07:06:28.206Z,98807.00
2018-09-18T07:08:57.738Z,98792.00
2018-09-18T07:11:27.267Z,98801.00
2018-09-18T07:13:56.906Z,98801.00
2018-09-18T07:16:26.546Z,98800.00
2018-09-18T07:18:56.168Z,98804.00
2018-09-18T07:21:25.833Z,98797.00
2018-09-18T07:23:55.546Z,98801.00
2018-09-18T07:26:25.186Z,98801.00
2018-09-18T07:28:55.006Z,98798.00
2018-09-18T07:31:24.766Z,98801.00
2018-09-18T07:33:54.872Z,98792.00
2018-09-18T07:36:24.606Z,98797.00
2018-09-18T07:38:54.406Z,98801.00
2018-09-18T07:41:24.726Z,98797.00
2018-09-18T07:43:54.606Z,98798.00
2018-09-18T07:46:24.688Z,98795.00
2018-09-18T07:48:58.587Z,98794.00
2018-09-18T07:51:28.187Z,98804.00
2018-09-18T07:53:58.087Z,98798.00
2018-09-18T07:56:28.369Z,98799.00
2018-09-18T07:58:58.307Z,98798.00
2018-09-18T08:01:28.227Z,98804.00
2018-09-18T08:03:57.708Z,98796.00
2018-09-18T08:06:27.287Z,98796.00
2018-09-18T08:08:56.823Z,98792.00
2018-09-18T08:11:26.546Z,98794.00
2018-09-18T08:13:56.063Z,98798.00
2018-09-18T08:16:25.663Z,98799.00
2018-09-18T08:18:55.240Z,98803.00
2018-09-18T08:21:24.823Z,98809.00
2018-09-18T08:23:54.492Z,98805.00
2018-09-18T08:26:23.852Z,98809.00
2018-09-18T08:28:53.324Z,98807.00
2018-09-18T08:31:22.903Z,98800.00
2018-09-18T08:33:52.504Z,98806.00
2018-09-18T08:36:22.084Z,98804.00
2018-09-18T08:38:51.664Z,98805.00
2018-09-18T08:41:21.335Z,98807.00
2018-09-18T08:43:50.845Z,98798.00
2018-09-18T08:46:20.460Z,98798.00
2018-09-18T08:48:56.975Z,98798.00
2018-09-18T08:51:26.923Z,98795.00
2018-09-18T08:53:56.353Z,98803.00
2018-09-18T08:56:26.090Z,98802.00
2018-09-18T08:58:55.528Z,98800.00
2018-09-18T09:01:25.383Z,98803.00
2018-09-18T09:03:54.949Z,98801.00
2018-09-18T09:06:24.749Z,98799.00
2018-09-18T09:08:54.308Z,98799.00
2018-09-18T09:11:23.752Z,98802.00
2018-09-18T09:13:53.353Z,98796.00
2018-09-18T09:16:23.043Z,98796.00
2018-09-18T09:18:52.444Z,98796.00
2018-09-18T09:21:22.195Z,98793.00
2018-09-18T09:23:51.683Z,98785.00
2018-09-18T09:26:21.251Z,98782.00
2018-09-18T09:28:50.806Z,98786.00
2018-09-18T09:31:20.135Z,98783.00
2018-09-18T09:33:49.742Z,98786.00
2018-09-18T09:36:19.185Z,98785.00
2018-09-18T09:38:48.801Z,98778.00
2018-09-18T09:41:18.543Z,98775.00
2018-09-18T09:43:48.178Z,98783.00
2018-09-18T09:46:17.724Z,98778.00
2018-09-18T09:48:47.243Z,98772.00
2018-09-18T09:51:16.644Z,98780.00
2018-09-18T09:53:46.252Z,98767.00
2018-09-18T09:56:15.373Z,98764.00
2018-09-18T09:58:45.009Z,98765.00
2018-09-18T10:01:19.838Z,98764.00
2018-09-18T10:03:49.410Z,98768.00
2018-09-18T10:06:18.950Z,98770.00
2018-09-18T10:08:48.498Z,98763.00
2018-09-18T10:11:17.950Z,98766.00
2018-09-18T10:13:47.870Z,98765.00
2018-09-18T10:16:17.410Z,98768.00
2018-09-18T10:18:47.070Z,98766.00
2018-09-18T10:21:16.610Z,98772.00
2018-09-18T10:23:46.418Z,98770.00
2018-09-18T10:26:15.955Z,98758.00
2018-09-18T10:28:45.630Z,98766.00
2018-09-18T10:31:15.035Z,98754.00
2018-09-18T10:33:44.625Z,98760.00
2018-09-18T10:36:14.187Z,98755.00
2018-09-18T10:38:43.776Z,98760.00
2018-09-18T10:41:13.518Z,98755.00
2018-09-18T10:43:43.262Z,98756.00
2018-09-18T10:46:12.808Z,98750.00
2018-09-18T10:48:47.985Z,98755.00
2018-09-18T10:51:17.573Z,98752.00
2018-09-18T10:53:47.045Z,98752.00
2018-09-18T10:56:16.565Z,98759.00
2018-09-18T10:58:46.246Z,98752.00
2018-09-18T11:01:15.770Z,98747.00
2018-09-18T11:03:45.329Z,98748.00
2018-09-18T11:06:14.935Z,98741.00
2018-09-18T11:08:44.446Z,98739.00
2018-09-18T11:11:13.951Z,98740.00
2018-09-18T11:13:43.614Z,98736.00
2018-09-18T11:16:13.184Z,98738.00
2018-09-18T11:18:42.667Z,98730.00
2018-09-18T11:21:12.261Z,98733.00
2018-09-18T11:23:41.957Z,98732.00
2018-09-18T11:26:11.405Z,98733.00
2018-09-18T11:28:40.943Z,98729.00
2018-09-18T11:31:10.534Z,98727.00
2018-09-18T11:33:40.092Z,98719.00
2018-09-18T11:36:09.644Z,98721.00
2018-09-18T11:38:39.546Z,98718.00
2018-09-18T11:41:09.145Z,98718.00
2018-09-18T11:43:38.825Z,98723.00
2018-09-18T11:46:08.467Z,98718.00
2018-09-18T11:48:38.067Z,98717.00
2018-09-18T11:51:07.618Z,98712.00
2018-09-18T11:53:37.228Z,98709.00
2018-09-18T11:56:06.787Z,98707.00
2018-09-18T11:58:36.306Z,98708.00
2018-09-18T12:01:05.867Z,98696.00
2018-09-18T12:03:35.391Z,98704.00
2018-09-18T12:06:05.087Z,98700.00
2018-09-18T12:08:34.714Z,98697.00
2018-09-18T12:11:04.327Z,98694.00
2018-09-18T12:13:34.264Z,98695.00
2018-09-18T12:16:03.987Z,98688.00
2018-09-18T12:18:33.748Z,98690.00
2018-09-18T12:21:03.327Z,98692.00
2018-09-18T12:23:32.967Z,98688.00
2018-09-18T12:26:02.448Z,98692.00
2018-09-18T12:28:32.047Z,98687.00
2018-09-18T12:31:01.687Z,98686.00
2018-09-18T12:33:31.173Z,98688.00
2018-09-18T12:36:00.778Z,98678.00
2018-09-18T12:38:30.268Z,98680.00
2018-09-18T12:41:00.127Z,98682.00
2018-09-18T12:43:29.667Z,98677.00
2018-09-18T12:45:59.111Z,98676.00
2018-09-18T12:48:28.711Z,98673.00
2018-09-18T12:50:58.160Z,98667.00
2018-09-18T12:53:27.799Z,98676.00
2018-09-18T12:55:57.317Z,98671.00
2018-09-18T12:58:26.890Z,98667.00
2018-09-18T13:00:56.331Z,98663.00
2018-09-18T13:03:25.931Z,98660.00
2018-09-18T13:05:55.932Z,98667.00
2018-09-18T13:08:25.638Z,98660.00
2018-09-18T13:10:55.231Z,98666.00
2018-09-18T13:13:24.712Z,98657.00
2018-09-18T13:15:54.151Z,98655.00
2018-09-18T13:18:23.874Z,98647.00
2018-09-18T13:20:53.304Z,98651.00
2018-09-18T13:23:22.722Z,98641.00
2018-09-18T13:25:52.296Z,98641.00
2018-09-18T13:28:21.903Z,98633.00
2018-09-18T13:30:51.382Z,98638.00
2018-09-18T13:33:21.164Z,98641.00
2018-09-18T13:35:50.601Z,98638.00
2018-09-18T13:38:19.946Z,98638.00
2018-09-18T13:40:49.334Z,98630.00
2018-09-18T13:43:18.905Z,98630.00
2018-09-18T13:45:48.464Z,98633.00
2018-09-18T13:48:17.975Z,98626.00
2018-09-18T13:50:47.528Z,98627.00
2018-09-18T13:53:17.271Z,98628.00
2018-09-18T13:55:46.971Z,98620.00
2018-09-18T13:58:16.552Z,98610.00
2018-09-18T14:00:46.105Z,98613.00
2018-09-18T14:03:15.618Z,98616.00
2018-09-18T14:05:45.044Z,98612.00
2018-09-18T14:08:14.688Z,98614.00
2018-09-18T14:10:44.512Z,98611.00
2018-09-18T14:13:14.132Z,98610.00
2018-09-18T14:15:43.674Z,98610.00
2018-09-18T14:18:13.132Z,98598.00
2018-09-18T14:20:42.793Z,98597.00
2018-09-18T14:23:12.332Z,98599.00
2018-09-18T14:25:41.834Z,98600.00
2018-09-18T14:28:12.252Z,98597.00
2018-09-18T14:30:41.896Z,98595.00
2018-09-18T14:33:11.535Z,98590.00
2018-09-18T14:35:42.512Z,98586.00
2018-09-18T14:38:12.395Z,98584.00
2018-09-18T14:40:42.452Z,98582.00
2018-09-18T14:43:11.913Z,98580.00
2018-09-18T14:45:41.512Z,98574.00
2018-09-18T14:48:11.031Z,98573.00
2018-09-18T14:50:41.133Z,98567.00
2018-09-18T14:53:10.631Z,98574.00
2018-09-18T14:55:41.442Z,98573.00
2018-09-18T14:58:11.013Z,98565.00
2018-09-18T15:00:40.351Z,98559.00
2018-09-18T15:03:09.888Z,98559.00
2018-09-18T15:05:39.468Z,98557.00
2018-09-18T15:08:09.028Z,98554.00
2018-09-18T15:10:39.768Z,98559.00
2018-09-18T15:13:09.548Z,98550.00
2018-09-18T15:15:39.141Z,98546.00
2018-09-18T15:18:08.749Z,98546.00
2018-09-18T15:20:38.309Z,98551.00
2018-09-18T15:23:08.209Z,98552.00
2018-09-18T15:25:37.629Z,98555.00
2018-09-18T15:28:07.602Z,98566.00
2018-09-18T15:30:38.070Z,98560.00
2018-09-18T15:33:07.942Z,98559.00
2018-09-18T15:35:38.144Z,98563.00
2018-09-18T15:38:09.335Z,98556.00
2018-09-18T15:40:40.664Z,98559.00
2018-09-18T15:43:10.375Z,98557.00
2018-09-18T15:45:39.999Z,98554.00
2018-09-18T15:48:10.312Z,98558.00
2018-09-18T15:50:40.652Z,98553.00
2018-09-18T15:53:10.204Z,98554.00
2018-09-18T15:55:40.474Z,98548.00
2018-09-18T15:58:10.906Z,98546.00
2018-09-18T16:00:41.161Z,98545.00
2018-09-18T16:03:11.132Z,98539.00
2018-09-18T16:05:41.273Z,98541.00
2018-09-18T16:08:16.358Z,98542.00
2018-09-18T16:10:46.832Z,98540.00
2018-09-18T16:13:17.412Z,98544.00
2018-09-18T16:15:47.612Z,98547.00
2018-09-18T16:18:17.052Z,98535.00
2018-09-18T16:20:46.731Z,98541.00
2018-09-18T16:23:16.272Z,98544.00
2018-09-18T16:25:45.972Z,98539.00
2018-09-18T16:28:16.467Z,98542.00
2018-09-18T16:30:46.453Z,98541.00
2018-09-18T16:33:17.489Z,98543.00
2018-09-18T16:35:48.347Z,98542.00
2018-09-18T16:38:18.168Z,98543.00
2018-09-18T16:40:48.175Z,98543.00
2018-09-18T16:43:20.545Z,98537.00
2018-09-18T16:45:52.127Z,98538.00
2018-09-18T16:48:22.105Z,98538.00
2018-09-18T16:50:54.090Z,98542.00
2018-09-18T16:53:23.986Z,98543.00
2018-09-18T16:55:56.095Z,98544.00
2018-09-18T16:58:25.676Z,98541.00
2018-09-18T17:01:58.709Z,98546.00
2018-09-18T17:04:28.823Z,98548.00
2018-09-18T17:07:00.241Z,98551.00
2018-09-18T17:09:30.604Z,98553.00
2018-09-18T17:12:01.821Z,98555.00
2018-09-18T17:14:46.154Z,98557.00
2018-09-18T17:17:16.674Z,98562.00
2018-09-18T17:19:47.356Z,98564.00
2018-09-18T17:22:18.512Z,98568.00
2018-09-18T17:24:48.715Z,98564.00
2018-09-18T17:27:23.595Z,98563.00
2018-09-18T17:29:54.117Z,98570.00
2018-09-18T17:32:24.593Z,98567.00
2018-09-18T17:34:55.118Z,98572.00
2018-09-18T17:37:25.335Z,98576.00
2018-09-18T17:39:56.095Z,98584.00
2018-09-18T17:42:27.208Z,98579.00
2018-09-18T17:44:58.457Z,98578.00
2018-09-18T17:47:29.996Z,98583.00
2018-09-18T17:50:00.762Z,98584.00
2018-09-18T17:52:32.420Z,98585.00
2018-09-18T17:55:13.207Z,98584.00
2018-09-18T17:57:52.094Z,98596.00
2018-09-18T18:00:23.642Z,98594.00
2018-09-18T18:02:54.268Z,98591.00
2018-09-18T18:05:24.740Z,98591.00
2018-09-18T18:07:54.687Z,98591.00
2018-09-18T18:10:25.552Z,98594.00
2018-09-18T18:12:56.827Z,98592.00
2018-09-18T18:15:27.047Z,98589.00
2018-09-18T18:17:57.428Z,98598.00
2018-09-18T18:20:42.014Z,98599.00
2018-09-18T18:26:33.440Z,98599.00
2018-09-18T18:29:06.105Z,98600.00
2018-09-18T18:31:37.466Z,98601.00
2018-09-18T18:34:23.065Z,98593.00
2018-09-18T18:36:54.146Z,98598.00
2018-09-18T18:39:25.045Z,98599.00
2018-09-18T18:41:55.286Z,98607.00
2018-09-18T18:44:25.724Z,98606.00
2018-09-18T18:46:57.805Z,98612.00
2018-09-18T18:49:32.134Z,98614.00
2018-09-18T18:52:12.748Z,98616.00
2018-09-18T18:54:42.535Z,98621.00
2018-09-18T18:57:14.354Z,98629.00
2018-09-18T18:59:43.896Z,98634.00
2018-09-18T19:02:15.705Z,98635.00
2018-09-18T19:05:00.921Z,98633.00
2018-09-18T19:07:36.927Z,98639.00
2018-09-18T19:10:08.880Z,98639.00
2018-09-18T19:12:51.300Z,98636.00
2018-09-18T19:15:22.185Z,98646.00
2018-09-18T19:17:52.284Z,98647.00
2018-09-18T19:20:22.364Z,98652.00
2018-09-18T19:22:53.625Z,98660.00
2018-09-18T19:25:23.921Z,98662.00
2018-09-18T19:28:25.865Z,98666.00
2018-09-18T19:30:56.425Z,98669.00
2018-09-18T19:33:28.877Z,98670.00
2018-09-18T19:35:58.965Z,98678.00
2018-09-18T19:38:31.624Z,98678.00
2018-09-18T19:41:01.065Z,98684.00
2018-09-18T19:43:30.867Z,98685.00
2018-09-18T19:46:00.981Z,98686.00
2018-09-18T19:48:30.608Z,98691.00
2018-09-18T19:51:00.477Z,98691.00
2018-09-18T19:53:41.009Z,98692.00
2018-09-18T19:56:10.425Z,98697.00
2018-09-18T19:58:41.613Z,98697.00
2018-09-18T20:01:26.043Z,98697.00
2018-09-18T20:03:56.456Z,98693.00
2018-09-18T20:06:56.925Z,98696.00
2018-09-18T20:09:26.437Z,98693.00
2018-09-18T20:11:57.185Z,98690.00
2018-09-18T20:14:28.245Z,98695.00
2018-09-18T20:20:56.408Z,98691.00
2018-09-18T20:23:27.887Z,98697.00
2018-09-18T20:25:58.045Z,98690.00
2018-09-18T20:28:29.204Z,98691.00
2018-09-18T20:30:59.288Z,98695.00
2018-09-18T20:33:33.903Z,98698.00
2018-09-18T20:36:04.243Z,98702.00
2018-09-18T20:38:36.724Z,98709.00
2018-09-18T20:41:07.323Z,98718.00
2018-09-18T20:43:37.923Z,98712.00
2018-09-18T20:46:07.693Z,98723.00
2018-09-18T20:48:38.163Z,98729.00
2018-09-18T20:51:07.732Z,98725.00
2018-09-18T20:53:38.223Z,98728.00
2018-09-18T20:56:08.101Z,98732.00
2018-09-18T20:58:38.132Z,98724.00
2018-09-18T21:01:08.005Z,98728.00
2018-09-18T21:03:41.399Z,98736.00
2018-09-18T21:06:10.961Z,98740.00
2018-09-18T21:08:41.881Z,98736.00
2018-09-18T21:11:12.281Z,98740.00
2018-09-18T21:13:42.561Z,98754.00
2018-09-18T21:16:12.961Z,98759.00
2018-09-18T21:18:43.242Z,98768.00
2018-09-18T21:21:13.922Z,98786.00
2018-09-18T21:23:43.682Z,98819.00
2018-09-18T21:26:15.441Z,98828.00
2018-09-18T21:28:45.805Z,98835.00
2018-09-18T21:31:16.941Z,98840.00
2018-09-18T21:33:46.580Z,98848.00
2018-09-18T21:36:16.025Z,98857.00
2018-09-18T21:38:45.526Z,98870.00
2018-09-18T21:41:15.032Z,98873.00
2018-09-18T21:43:44.605Z,98888.00
2018-09-18T21:46:14.125Z,98897.00
2018-09-18T21:48:43.765Z,98894.00
2018-09-18T21:51:13.324Z,98892.00
2018-09-18T21:53:42.950Z,98905.00
2018-09-18T21:56:12.491Z,98904.00
2018-09-18T21:58:42.126Z,98909.00
2018-09-18T22:01:28.088Z,98915.00
2018-09-18T22:03:57.702Z,98918.00
2018-09-18T22:06:27.371Z,98918.00
2018-09-18T22:08:56.991Z,98911.00
2018-09-18T22:11:26.462Z,98916.00
2018-09-18T22:13:56.042Z,98919.00
2018-09-18T22:16:25.487Z,98916.00
2018-09-18T22:18:55.062Z,98920.00
2018-09-18T22:21:24.543Z,98910.00
2018-09-18T22:23:54.162Z,98909.00
2018-09-18T22:26:23.652Z,98913.00
2018-09-18T22:28:53.242Z,98919.00
2018-09-18T22:31:22.742Z,98931.00
2018-09-18T22:33:52.603Z,98917.00
2018-09-18T22:36:22.179Z,98918.00
2018-09-18T22:38:51.671Z,98919.00
2018-09-18T22:41:21.563Z,98911.00
2018-09-18T22:43:51.083Z,98909.00
2018-09-18T22:46:20.702Z,98910.00
2018-09-18T22:48:50.239Z,98910.00
2018-09-18T22:51:19.782Z,98905.00
2018-09-18T22:53:49.482Z,98911.00
2018-09-18T22:56:19.023Z,98905.00
2018-09-18T22:58:48.770Z,98918.00
2018-09-18T23:01:18.323Z,98920.00
2018-09-18T23:03:47.860Z,98913.00
2018-09-18T23:06:17.361Z,98925.00
2018-09-18T23:08:46.880Z,98919.00
2018-09-18T23:11:16.460Z,98921.00
2018-09-18T23:13:45.981Z,98915.00
2018-09-18T23:16:17.200Z,98910.00
2018-09-18T23:18:46.879Z,98907.00
2018-09-18T23:21:16.520Z,98910.00
2018-09-18T23:23:46.205Z,98909.00
2018-09-18T23:26:15.780Z,98908.00
2018-09-18T23:28:45.600Z,98901.00
2018-09-18T23:31:15.200Z,98904.00
2018-09-18T23:33:44.710Z,98905.00
2018-09-18T23:36:14.220Z,98912.00
2018-09-18T23:38:43.742Z,98901.00
2018-09-18T23:41:13.261Z,98891.00
2018-09-18T23:43:43.206Z,98883.00
2018-09-18T23:46:12.700Z,98893.00
2018-09-18T23:48:42.300Z,98893.00
2018-09-18T23:51:12.160Z,98893.00
2018-09-18T23:53:41.744Z,98888.00
2018-09-18T23:56:11.339Z,98894.00
2018-09-18T23:58:40.941Z,98893.00
